Impacts TAF Board INFO
FOR SITUATIONAL AWARENESS. NOT TO BE USED FOR FLIGHT PLANNING PURPOSES.
IDs:

KPDX - Portland Intl Arpt, OR, US

Issued at 0306 UTC 20 Apr 2018
Updated at 0511 UTC 20 Apr 2018
Potential Impact None Slight Moderate High
Time0453Z 20/06Z 20/07Z 20/08Z 20/09Z 20/10Z 20/11Z 20/12Z 20/13Z 20/14Z 20/15Z 20/16Z 20/17Z 20/18Z>>
Type OBS PRVL PRVL PRVL PRVL PRVL PRVL PRVL PRVL PRVL PRVL PRVL PRVL PRVL
VIS 10 >6 >6 >6 >6 >6 >6 >6 >6 >6 >6 >6 >6 >6
CIG -- -- -- -- -- -- -- 200 200 200 200 200 200 200
Cover CLR SCT SCT SCT SCT SCT SCT BKN BKN BKN BKN BKN BKN BKN
FltCat VFR VFR VFR VFR VFR VFR VFR VFR VFR VFR VFR VFR VFR VFR
WX -- -- -- -- -- -- -- -- -- -- -- -- -- --
WDir 320 VRB VRB VRB VRB VRB VRB VRB VRB VRB VRB VRB VRB VRB
WSpd 7 3 3 3 3 3 3 3 3 3 3 3 3 3
WGst -- -- -- -- -- -- -- -- -- -- -- -- -- --

Raw TAF
KPDX 200306Z 2003/2024 VRB03KT P6SM SCT250
  FM201200 VRB03KT P6SM SCT100 BKN200
  FM202000 25006KT P6SM FEW060 BKN100


Raw METAR
KPDX 200453Z 32007KT 10SM CLR 12/03 A3026 RMK AO2 SLP245 T01220028
KPDX 200353Z 33004KT 10SM FEW050 14/01 A3023 RMK AO2 SLP235 T01440011
KPDX 200253Z 35005KT 10SM FEW050 FEW250 17/M03 A3021 RMK AO2 SLP231 T01671028 53001

METAR Board
Radar Display
Forecast Discussion

FOR SITUATIONAL AWARENESS. NOT TO BE USED FOR FLIGHT PLANNING PURPOSES.